sensor_id;sensor_type;location;lat;lon;timestamp;pressure;altitude;pressure_sealevel;temperature;humidity
42003;BME280;27693;50.506;30.832;2023-01-19T08:00:02;99055.47;;;4.89;100.00
42003;BME280;27693;50.506;30.832;2023-01-19T08:01:09;99054.37;;;4.96;100.00
42003;BME280;27693;50.506;30.832;2023-01-19T08:02:13;99053.56;;;4.94;100.00
42003;BME280;27693;50.506;30.832;2023-01-19T08:03:18;99051.25;;;4.87;100.00
42003;BME280;27693;50.506;30.832;2023-01-19T08:04:21;99051.91;;;4.93;100.00
42003;BME280;27693;50.506;30.832;2023-01-19T08:05:23;99046.84;;;4.90;100.00
42003;BME280;27693;50.506;30.832;2023-01-19T08:06:34;99050.81;;;5.01;100.00
42003;BME280;27693;50.506;30.832;2023-01-19T08:07:37;99047.52;;;4.95;100.00
42003;BME280;27693;50.506;30.832;2023-01-19T08:08:40;99049.80;;;5.05;100.00
42003;BME280;27693;50.506;30.832;2023-01-19T08:09:43;99043.48;;;5.14;100.00
42003;BME280;27693;50.506;30.832;2023-01-19T08:10:49;99039.86;;;5.19;100.00
42003;BME280;27693;50.506;30.832;2023-01-19T08:11:58;99038.84;;;5.23;100.00
42003;BME280;27693;50.506;30.832;2023-01-19T08:13:01;99033.23;;;5.12;100.00
42003;BME280;27693;50.506;30.832;2023-01-19T08:14:05;99039.28;;;5.11;100.00
42003;BME280;27693;50.506;30.832;2023-01-19T08:15:12;99035.01;;;5.10;100.00
42003;BME280;27693;50.506;30.832;2023-01-19T08:16:15;99028.88;;;5.14;100.00
42003;BME280;27693;50.506;30.832;2023-01-19T08:17:18;99033.29;;;5.10;100.00
42003;BME280;27693;50.506;30.832;2023-01-19T08:18:20;99035.13;;;5.07;100.00
42003;BME280;27693;50.506;30.832;2023-01-19T08:19:23;99036.39;;;5.20;100.00
42003;BME280;27693;50.506;30.832;2023-01-19T08:20:27;99035.64;;;5.42;100.00
42003;BME280;27693;50.506;30.832;2023-01-19T08:21:31;99040.45;;;5.51;100.00
42003;BME280;27693;50.506;30.832;2023-01-19T08:22:34;99045.04;;;5.90;100.00
42003;BME280;27693;50.506;30.832;2023-01-19T08:23:37;99045.04;;;5.90;100.00
42003;BME280;27693;50.506;30.832;2023-01-19T08:24:39;99060.33;;;5.97;100.00
42003;BME280;27693;50.506;30.832;2023-01-19T08:25:42;99064.86;;;5.90;100.00
42003;BME280;27693;50.506;30.832;2023-01-19T08:26:48;99070.82;;;5.92;100.00
42003;BME280;27693;50.506;30.832;2023-01-19T08:27:53;99053.27;;;6.02;100.00
42003;BME280;27693;50.506;30.832;2023-01-19T08:28:57;99056.29;;;5.89;100.00
42003;BME280;27693;50.506;30.832;2023-01-19T08:30:00;99064.77;;;5.93;100.00
42003;BME280;27693;50.506;30.832;2023-01-19T08:31:02;99058.45;;;6.68;100.00
42003;BME280;27693;50.506;30.832;2023-01-19T08:32:06;99066.74;;;6.10;100.00
42003;BME280;27693;50.506;30.832;2023-01-19T08:33:10;99072.67;;;5.88;100.00
42003;BME280;27693;50.506;30.832;2023-01-19T08:34:12;99068.63;;;6.05;100.00
42003;BME280;27693;50.506;30.832;2023-01-19T08:35:15;99071.48;;;5.97;100.00
42003;BME280;27693;50.506;30.832;2023-01-19T08:36:19;99065.05;;;6.09;100.00
42003;BME280;27693;50.506;30.832;2023-01-19T08:37:22;99069.26;;;6.12;100.00
42003;BME280;27693;50.506;30.832;2023-01-19T08:38:25;99069.26;;;6.12;100.00
42003;BME280;27693;50.506;30.832;2023-01-19T08:39:29;99072.16;;;6.26;100.00
42003;BME280;27693;50.506;30.832;2023-01-19T08:40:34;99070.09;;;6.12;100.00
42003;BME280;27693;50.506;30.832;2023-01-19T08:41:37;99072.27;;;6.23;100.00
42003;BME280;27693;50.506;30.832;2023-01-19T08:42:42;99059.41;;;6.21;100.00
42003;BME280;27693;50.506;30.832;2023-01-19T08:43:44;99067.82;;;6.27;100.00
42003;BME280;27693;50.506;30.832;2023-01-19T08:44:46;99063.37;;;6.08;100.00
42003;BME280;27693;50.506;30.832;2023-01-19T08:45:51;99061.02;;;6.02;100.00
42003;BME280;27693;50.506;30.832;2023-01-19T08:46:55;99056.17;;;6.16;100.00
42003;BME280;27693;50.506;30.832;2023-01-19T08:47:57;99068.72;;;6.26;100.00
42003;BME280;27693;50.506;30.832;2023-01-19T08:49:00;99058.20;;;6.08;100.00
42003;BME280;27693;50.506;30.832;2023-01-19T08:50:08;99052.46;;;6.23;100.00
42003;BME280;27693;50.506;30.832;2023-01-19T08:51:11;99051.56;;;6.25;100.00
42003;BME280;27693;50.506;30.832;2023-01-19T08:52:15;99062.66;;;6.27;100.00
42003;BME280;27693;50.506;30.832;2023-01-19T08:53:18;99056.66;;;6.26;100.00
42003;BME280;27693;50.506;30.832;2023-01-19T08:54:22;99060.73;;;6.32;100.00
42003;BME280;27693;50.506;30.832;2023-01-19T08:55:29;99058.11;;;6.33;100.00
42003;BME280;27693;50.506;30.832;2023-01-19T08:56:32;99054.38;;;6.41;100.00
42003;BME280;27693;50.506;30.832;2023-01-19T09:18:10;99038.14;;;6.59;100.00
42003;BME280;27693;50.506;30.832;2023-01-19T09:19:28;99026.20;;;6.77;100.00
42003;BME280;27693;50.506;30.832;2023-01-19T09:21:03;99027.11;;;6.76;100.00
42003;BME280;27693;50.506;30.832;2023-01-19T09:29:33;99050.63;;;6.70;100.00
42003;BME280;27693;50.506;30.832;2023-01-19T09:31:22;99050.63;;;6.70;100.00
42003;BME280;27693;50.506;30.832;2023-01-19T09:32:28;99045.73;;;6.84;100.00
42003;BME280;27693;50.506;30.832;2023-01-19T09:33:30;99045.20;;;6.76;100.00
42003;BME280;27693;50.506;30.832;2023-01-19T09:34:32;99039.43;;;6.69;100.00
42003;BME280;27693;50.506;30.832;2023-01-19T09:35:36;99036.41;;;6.80;100.00
42003;BME280;27693;50.506;30.832;2023-01-19T09:36:39;99036.75;;;6.93;100.00
42003;BME280;27693;50.506;30.832;2023-01-19T09:37:46;99034.95;;;6.95;100.00
42003;BME280;27693;50.506;30.832;2023-01-19T09:38:48;99030.75;;;6.93;100.00
42003;BME280;27693;50.506;30.832;2023-01-19T09:39:51;99036.03;;;6.90;100.00
42003;BME280;27693;50.506;30.832;2023-01-19T09:40:54;99036.41;;;7.01;100.00
42003;BME280;27693;50.506;30.832;2023-01-19T09:42:12;99027.83;;;7.00;100.00
42003;BME280;27693;50.506;30.832;2023-01-19T09:44:34;99027.38;;;6.91;100.00
42003;BME280;27693;50.506;30.832;2023-01-19T09:45:51;99026.86;;;7.03;100.00
42003;BME280;27693;50.506;30.832;2023-01-19T09:47:32;99013.55;;;6.92;100.00
42003;BME280;27693;50.506;30.832;2023-01-19T09:50:12;99016.66;;;7.00;100.00
42003;BME280;27693;50.506;30.832;2023-01-19T09:51:40;99017.03;;;6.91;100.00
42003;BME280;27693;50.506;30.832;2023-01-19T09:52:46;99017.03;;;6.91;100.00
42003;BME280;27693;50.506;30.832;2023-01-19T09:54:04;99011.98;;;6.87;100.00
42003;BME280;27693;50.506;30.832;2023-01-19T09:55:25;99010.70;;;6.77;100.00
42003;BME280;27693;50.506;30.832;2023-01-19T09:56:33;99005.38;;;6.80;100.00
42003;BME280;27693;50.506;30.832;2023-01-19T09:57:36;98996.72;;;6.81;100.00
42003;BME280;27693;50.506;30.832;2023-01-19T09:58:39;98993.61;;;6.94;100.00
42003;BME280;27693;50.506;30.832;2023-01-19T09:59:42;98998.30;;;6.85;100.00
42003;BME280;27693;50.506;30.832;2023-01-19T10:00:57;99001.63;;;6.87;100.00
42003;BME280;27693;50.506;30.832;2023-01-19T10:05:29;98998.06;;;7.11;100.00
42003;BME280;27693;50.506;30.832;2023-01-19T10:06:32;98989.59;;;7.07;100.00
42003;BME280;27693;50.506;30.832;2023-01-19T10:09:22;98982.42;;;7.14;100.00
42003;BME280;27693;50.506;30.832;2023-01-19T10:10:29;98979.30;;;7.26;100.00
42003;BME280;27693;50.506;30.832;2023-01-19T10:11:39;98984.84;;;6.98;100.00
42003;BME280;27693;50.506;30.832;2023-01-19T10:17:16;98982.17;;;6.58;100.00
42003;BME280;27693;50.506;30.832;2023-01-19T10:18:46;98973.19;;;6.67;100.00
42003;BME280;27693;50.506;30.832;2023-01-19T10:19:55;98977.88;;;6.79;100.00
42003;BME280;27693;50.506;30.832;2023-01-19T10:21:36;98968.69;;;6.93;100.00
42003;BME280;27693;50.506;30.832;2023-01-19T10:22:44;98969.32;;;6.98;100.00
42003;BME280;27693;50.506;30.832;2023-01-19T10:24:15;98964.94;;;7.00;100.00
42003;BME280;27693;50.506;30.832;2023-01-19T10:25:20;98968.23;;;7.03;100.00
42003;BME280;27693;50.506;30.832;2023-01-19T10:26:32;98965.69;;;7.02;100.00
42003;BME280;27693;50.506;30.832;2023-01-19T10:27:36;98955.92;;;7.09;100.00
42003;BME280;27693;50.506;30.832;2023-01-19T10:28:39;98959.34;;;7.09;100.00
42003;BME280;27693;50.506;30.832;2023-01-19T10:29:44;98955.14;;;7.07;100.00
42003;BME280;27693;50.506;30.832;2023-01-19T10:30:49;98951.07;;;7.01;100.00
42003;BME280;27693;50.506;30.832;2023-01-19T10:32:07;98954.70;;;6.97;100.00
42003;BME280;27693;50.506;30.832;2023-01-19T10:33:12;98950.44;;;6.96;100.00
42003;BME280;27693;50.506;30.832;2023-01-19T10:34:14;98942.56;;;6.99;100.00
42003;BME280;27693;50.506;30.832;2023-01-19T10:35:22;98940.95;;;6.96;100.00
42003;BME280;27693;50.506;30.832;2023-01-19T10:36:36;98939.84;;;6.81;100.00
42003;BME280;27693;50.506;30.832;2023-01-19T10:37:39;98935.09;;;6.72;100.00
42003;BME280;27693;50.506;30.832;2023-01-19T10:38:43;98943.48;;;6.77;100.00
42003;BME280;27693;50.506;30.832;2023-01-19T10:39:55;98936.63;;;6.76;100.00
42003;BME280;27693;50.506;30.832;2023-01-19T10:41:09;98935.27;;;6.88;100.00
42003;BME280;27693;50.506;30.832;2023-01-19T10:42:14;98935.27;;;6.88;100.00
42003;BME280;27693;50.506;30.832;2023-01-19T10:44:40;98935.70;;;6.98;100.00
42003;BME280;27693;50.506;30.832;2023-01-19T10:45:44;98931.52;;;7.14;100.00
42003;BME280;27693;50.506;30.832;2023-01-19T10:46:49;98926.80;;;7.24;100.00
42003;BME280;27693;50.506;30.832;2023-01-19T10:47:54;98935.89;;;7.33;100.00
42003;BME280;27693;50.506;30.832;2023-01-19T10:48:58;98937.27;;;7.21;100.00
42003;BME280;27693;50.506;30.832;2023-01-19T10:50:28;98935.03;;;7.32;100.00
42003;BME280;27693;50.506;30.832;2023-01-19T10:51:27;98936.72;;;7.33;100.00
42003;BME280;27693;50.506;30.832;2023-01-19T10:52:36;98933.42;;;7.30;100.00
42003;BME280;27693;50.506;30.832;2023-01-19T10:53:43;98926.45;;;7.32;100.00
42003;BME280;27693;50.506;30.832;2023-01-19T10:54:46;98919.59;;;7.50;100.00
42003;BME280;27693;50.506;30.832;2023-01-19T10:56:07;98914.05;;;7.58;100.00
42003;BME280;27693;50.506;30.832;2023-01-19T10:57:00;98907.77;;;7.44;100.00
42003;BME280;27693;50.506;30.832;2023-01-19T10:58:05;98916.72;;;7.37;100.00
42003;BME280;27693;50.506;30.832;2023-01-19T11:00:39;98908.26;;;7.53;100.00
42003;BME280;27693;50.506;30.832;2023-01-19T11:01:42;98898.44;;;7.59;100.00
42003;BME280;27693;50.506;30.832;2023-01-19T11:02:49;98895.44;;;7.68;100.00
42003;BME280;27693;50.506;30.832;2023-01-19T11:03:53;98901.30;;;7.72;100.00
42003;BME280;27693;50.506;30.832;2023-01-19T11:04:58;98906.08;;;7.43;100.00
42003;BME280;27693;50.506;30.832;2023-01-19T11:06:20;98905.75;;;7.51;100.00
42003;BME280;27693;50.506;30.832;2023-01-19T11:07:29;98906.28;;;7.39;100.00
42003;BME280;27693;50.506;30.832;2023-01-19T11:08:32;98916.38;;;7.26;100.00
42003;BME280;27693;50.506;30.832;2023-01-19T11:09:35;98904.06;;;7.31;100.00
42003;BME280;27693;50.506;30.832;2023-01-19T11:10:37;98906.77;;;7.28;100.00
42003;BME280;27693;50.506;30.832;2023-01-19T11:11:47;98906.43;;;7.16;100.00
42003;BME280;27693;50.506;30.832;2023-01-19T11:13:02;98908.03;;;7.19;100.00
42003;BME280;27693;50.506;30.832;2023-01-19T11:14:12;98906.93;;;7.25;100.00
42003;BME280;27693;50.506;30.832;2023-01-19T11:15:21;98898.11;;;7.29;100.00
42003;BME280;27693;50.506;30.832;2023-01-19T11:16:26;98895.52;;;7.29;100.00
42003;BME280;27693;50.506;30.832;2023-01-19T11:19:01;98893.51;;;7.35;100.00
42003;BME280;27693;50.506;30.832;2023-01-19T11:20:48;98894.55;;;7.12;100.00
42003;BME280;27693;50.506;30.832;2023-01-19T11:21:53;98894.48;;;7.14;100.00
42003;BME280;27693;50.506;30.832;2023-01-19T11:23:15;98894.48;;;7.14;100.00
42003;BME280;27693;50.506;30.832;2023-01-19T11:24:15;98889.88;;;7.21;100.00
42003;BME280;27693;50.506;30.832;2023-01-19T11:25:24;98899.25;;;7.23;100.00
42003;BME280;27693;50.506;30.832;2023-01-19T11:26:53;98883.48;;;7.28;100.00
42003;BME280;27693;50.506;30.832;2023-01-19T11:27:54;98891.46;;;7.42;100.00
42003;BME280;27693;50.506;30.832;2023-01-19T11:28:58;98880.00;;;7.48;100.00
42003;BME280;27693;50.506;30.832;2023-01-19T11:31:34;98884.09;;;7.71;100.00
42003;BME280;27693;50.506;30.832;2023-01-19T11:32:56;98883.16;;;7.55;100.00
42003;BME280;27693;50.506;30.832;2023-01-19T11:34:01;98885.66;;;7.56;100.00
42003;BME280;27693;50.506;30.832;2023-01-19T11:35:36;98880.77;;;7.50;100.00
42003;BME280;27693;50.506;30.832;2023-01-19T11:36:39;98875.30;;;7.56;100.00
42003;BME280;27693;50.506;30.832;2023-01-19T11:37:42;98872.34;;;7.64;100.00
42003;BME280;27693;50.506;30.832;2023-01-19T11:38:47;98865.86;;;7.55;100.00
42003;BME280;27693;50.506;30.832;2023-01-19T11:39:54;98872.16;;;7.49;100.00
42003;BME280;27693;50.506;30.832;2023-01-19T11:40:59;98872.10;;;7.51;100.00
42003;BME280;27693;50.506;30.832;2023-01-19T11:42:04;98867.05;;;7.48;100.00
42003;BME280;27693;50.506;30.832;2023-01-19T11:43:10;98860.77;;;7.54;100.00
42003;BME280;27693;50.506;30.832;2023-01-19T11:45:49;98858.92;;;7.56;100.00
42003;BME280;27693;50.506;30.832;2023-01-19T11:47:36;98853.48;;;7.62;100.00
42003;BME280;27693;50.506;30.832;2023-01-19T11:50:05;98861.48;;;7.75;100.00
42003;BME280;27693;50.506;30.832;2023-01-19T11:51:12;98865.97;;;7.71;100.00
42003;BME280;27693;50.506;30.832;2023-01-19T11:52:26;98868.26;;;7.77;100.00
42003;BME280;27693;50.506;30.832;2023-01-19T11:53:33;98873.78;;;7.89;100.00
42003;BME280;27693;50.506;30.832;2023-01-19T16:08:39;98921.00;;;7.94;100.00
42003;BME280;27693;50.506;30.832;2023-01-19T16:09:41;98925.28;;;7.95;100.00
42003;BME280;27693;50.506;30.832;2023-01-19T16:10:45;98923.30;;;8.00;100.00
42003;BME280;27693;50.506;30.832;2023-01-19T16:11:49;98928.95;;;8.08;100.00
42003;BME280;27693;50.506;30.832;2023-01-19T16:12:53;98931.16;;;8.16;100.00
42003;BME280;27693;50.506;30.832;2023-01-19T16:14:01;98941.62;;;8.32;100.00
42003;BME280;27693;50.506;30.832;2023-01-19T16:15:04;98923.72;;;8.45;100.00
42003;BME280;27693;50.506;30.832;2023-01-19T16:16:17;98930.22;;;8.54;100.00
42003;BME280;27693;50.506;30.832;2023-01-19T16:17:20;98938.45;;;8.62;100.00
42003;BME280;27693;50.506;30.832;2023-01-19T16:18:24;98936.02;;;8.76;100.00
42003;BME280;27693;50.506;30.832;2023-01-19T16:19:26;98939.38;;;8.78;100.00
42003;BME280;27693;50.506;30.832;2023-01-19T16:20:29;98939.83;;;8.69;100.00
42003;BME280;27693;50.506;30.832;2023-01-19T16:21:32;98942.34;;;8.71;100.00
42003;BME280;27693;50.506;30.832;2023-01-19T16:22:40;98937.83;;;8.74;100.00
42003;BME280;27693;50.506;30.832;2023-01-19T16:23:44;98941.11;;;8.78;100.00
42003;BME280;27693;50.506;30.832;2023-01-19T16:24:48;98941.97;;;8.78;100.00
42003;BME280;27693;50.506;30.832;2023-01-19T16:25:58;98941.52;;;8.70;100.00
42003;BME280;27693;50.506;30.832;2023-01-19T16:27:10;98936.73;;;8.96;100.00
42003;BME280;27693;50.506;30.832;2023-01-19T16:28:18;98943.98;;;8.89;100.00
42003;BME280;27693;50.506;30.832;2023-01-19T16:29:22;98936.42;;;9.02;100.00
42003;BME280;27693;50.506;30.832;2023-01-19T16:30:26;98934.09;;;9.14;100.00
42003;BME280;27693;50.506;30.832;2023-01-19T16:31:31;98936.09;;;9.08;100.00
42003;BME280;27693;50.506;30.832;2023-01-19T16:32:52;98940.10;;;8.98;100.00
42003;BME280;27693;50.506;30.832;2023-01-19T16:34:20;98934.09;;;9.14;100.00
42003;BME280;27693;50.506;30.832;2023-01-19T16:35:36;98937.51;;;8.98;100.00
42003;BME280;27693;50.506;30.832;2023-01-19T16:36:42;98929.22;;;9.07;100.00
42003;BME280;27693;50.506;30.832;2023-01-19T16:37:49;98933.82;;;9.02;100.00
42003;BME280;27693;50.506;30.832;2023-01-19T16:38:56;98938.10;;;9.03;100.00
42003;BME280;27693;50.506;30.832;2023-01-19T16:40:02;98935.59;;;9.02;100.00
42003;BME280;27693;50.506;30.832;2023-01-19T16:41:09;98938.25;;;9.00;100.00
42003;BME280;27693;50.506;30.832;2023-01-19T16:42:14;98938.42;;;8.97;100.00
42003;BME280;27693;50.506;30.832;2023-01-19T16:43:17;98933.82;;;9.02;100.00
42003;BME280;27693;50.506;30.832;2023-01-19T16:44:23;98936.27;;;9.05;100.00
42003;BME280;27693;50.506;30.832;2023-01-19T16:45:58;98936.09;;;9.08;100.00
42003;BME280;27693;50.506;30.832;2023-01-19T16:47:01;98934.09;;;9.14;100.00
42003;BME280;27693;50.506;30.832;2023-01-19T16:49:24;98939.06;;;9.34;100.00
42003;BME280;27693;50.506;30.832;2023-01-19T16:50:30;98938.25;;;9.00;100.00
42003;BME280;27693;50.506;30.832;2023-01-19T16:51:32;98944.75;;;8.91;100.00
42003;BME280;27693;50.506;30.832;2023-01-19T16:52:38;98934.05;;;8.98;100.00
42003;BME280;27693;50.506;30.832;2023-01-19T16:53:42;98937.78;;;9.09;100.00
42003;BME280;27693;50.506;30.832;2023-01-19T16:54:45;98947.48;;;9.06;100.00
42003;BME280;27693;50.506;30.832;2023-01-19T16:55:48;98950.30;;;9.01;100.00
42003;BME280;27693;50.506;30.832;2023-01-19T16:56:52;98946.66;;;9.05;100.00
42003;BME280;27693;50.506;30.832;2023-01-19T16:57:58;98941.92;;;8.96;100.00
42003;BME280;27693;50.506;30.832;2023-01-19T16:59:01;98942.75;;;8.97;100.00
42003;BME280;27693;50.506;30.832;2023-01-19T17:00:05;98941.78;;;8.99;100.00
42003;BME280;27693;50.506;30.832;2023-01-19T17:01:15;98931.70;;;8.93;100.00
42003;BME280;27693;50.506;30.832;2023-01-19T17:02:18;98938.88;;;8.88;100.00
42003;BME280;27693;50.506;30.832;2023-01-19T17:03:20;98938.42;;;8.97;100.00
42003;BME280;27693;50.506;30.832;2023-01-19T17:04:23;98935.27;;;9.08;100.00
42003;BME280;27693;50.506;30.832;2023-01-19T17:05:27;98937.22;;;9.20;100.00
42003;BME280;27693;50.506;30.832;2023-01-19T17:06:34;98936.45;;;9.18;100.00
42003;BME280;27693;50.506;30.832;2023-01-19T17:07:37;98935.97;;;9.27;100.00
42003;BME280;27693;50.506;30.832;2023-01-19T17:08:40;98937.80;;;9.25;100.00
42003;BME280;27693;50.506;30.832;2023-01-19T17:09:43;98948.04;;;9.29;100.00
42003;BME280;27693;50.506;30.832;2023-01-19T17:10:47;98940.64;;;9.21;100.00
42003;BME280;27693;50.506;30.832;2023-01-19T17:11:49;98936.53;;;9.17;100.00
42003;BME280;27693;50.506;30.832;2023-01-19T17:12:51;98938.89;;;9.21;100.00
42003;BME280;27693;50.506;30.832;2023-01-19T17:13:59;98945.09;;;9.19;100.00
42003;BME280;27693;50.506;30.832;2023-01-19T17:15:03;98939.13;;;9.17;100.00
42003;BME280;27693;50.506;30.832;2023-01-19T17:16:08;98940.91;;;9.16;100.00
42003;BME280;27693;50.506;30.832;2023-01-19T17:17:10;98937.98;;;9.22;100.00
42003;BME280;27693;50.506;30.832;2023-01-19T17:18:12;98940.48;;;9.24;100.00
42003;BME280;27693;50.506;30.832;2023-01-19T17:20:33;98928.78;;;9.49;100.00
42003;BME280;27693;50.506;30.832;2023-01-19T17:21:37;98936.65;;;9.31;100.00
42003;BME280;27693;50.506;30.832;2023-01-19T17:22:39;98927.60;;;9.22;100.00
42003;BME280;27693;50.506;30.832;2023-01-19T17:23:44;98919.55;;;9.27;100.00
42003;BME280;27693;50.506;30.832;2023-01-19T17:24:46;98926.42;;;9.28;100.00
42003;BME280;27693;50.506;30.832;2023-01-19T17:25:53;98942.52;;;9.35;100.00
42003;BME280;27693;50.506;30.832;2023-01-19T17:26:57;98927.95;;;9.32;100.00
42003;BME280;27693;50.506;30.832;2023-01-19T17:27:59;98926.09;;;9.34;100.00
42003;BME280;27693;50.506;30.832;2023-01-19T17:29:07;98918.91;;;9.39;100.00
42003;BME280;27693;50.506;30.832;2023-01-19T17:30:11;98929.97;;;9.43;100.00
42003;BME280;27693;50.506;30.832;2023-01-19T17:31:17;98933.20;;;9.31;100.00
42003;BME280;27693;50.506;30.832;2023-01-19T17:32:21;98926.74;;;9.22;100.00
42003;BME280;27693;50.506;30.832;2023-01-19T17:33:25;98937.03;;;9.23;100.00
42003;BME280;27693;50.506;30.832;2023-01-19T17:34:31;98934.30;;;9.26;100.00
42003;BME280;27693;50.506;30.832;2023-01-19T17:35:34;98928.95;;;9.30;100.00
42003;BME280;27693;50.506;30.832;2023-01-19T17:36:37;98936.47;;;9.34;100.00
42003;BME280;27693;50.506;30.832;2023-01-19T17:37:41;98934.95;;;9.14;100.00
42003;BME280;27693;50.506;30.832;2023-01-19T17:38:43;98935.77;;;9.15;100.00
42003;BME280;27693;50.506;30.832;2023-01-19T17:39:46;98935.77;;;9.15;100.00
42003;BME280;27693;50.506;30.832;2023-01-19T17:40:48;98934.03;;;9.15;100.00
42003;BME280;27693;50.506;30.832;2023-01-19T17:41:50;98937.30;;;9.19;100.00
42003;BME280;27693;50.506;30.832;2023-01-19T17:42:53;98934.27;;;9.10;100.00
42003;BME280;27693;50.506;30.832;2023-01-19T17:43:55;98940.52;;;9.06;100.00
42003;BME280;27693;50.506;30.832;2023-01-19T17:45:00;98945.80;;;9.05;100.00
42003;BME280;27693;50.506;30.832;2023-01-19T17:46:02;98940.69;;;9.03;100.00
42003;BME280;27693;50.506;30.832;2023-01-19T17:47:04;98934.27;;;9.10;100.00
42003;BME280;27693;50.506;30.832;2023-01-19T17:48:06;98932.59;;;9.09;100.00
42003;BME280;27693;50.506;30.832;2023-01-19T17:49:09;98930.58;;;9.15;100.00
42003;BME280;27693;50.506;30.832;2023-01-19T17:50:13;98929.34;;;9.22;100.00
42003;BME280;27693;50.506;30.832;2023-01-19T17:51:16;98930.20;;;9.22;100.00
42003;BME280;27693;50.506;30.832;2023-01-19T17:52:19;98941.16;;;9.27;100.00
42003;BME280;27693;50.506;30.832;2023-01-19T17:53:21;98938.48;;;9.29;100.00
42003;BME280;27693;50.506;30.832;2023-01-19T17:54:23;98940.48;;;9.24;100.00
42003;BME280;27693;50.506;30.832;2023-01-19T17:55:34;98927.66;;;9.21;100.00
42003;BME280;27693;50.506;30.832;2023-01-19T17:56:37;98934.44;;;9.23;100.00
42003;BME280;27693;50.506;30.832;2023-01-19T17:57:42;98924.48;;;9.16;100.00
42003;BME280;27693;50.506;30.832;2023-01-19T17:58:51;98927.51;;;9.24;100.00
42003;BME280;27693;50.506;30.832;2023-01-19T17:59:55;98928.09;;;9.29;100.00
42003;BME280;27693;50.506;30.832;2023-01-19T18:01:00;98933.03;;;9.18;100.00
42003;BME280;27693;50.506;30.832;2023-01-19T18:02:02;98934.09;;;9.14;100.00
42003;BME280;27693;50.506;30.832;2023-01-19T18:03:04;98930.76;;;9.11;100.00
42003;BME280;27693;50.506;30.832;2023-01-19T18:04:07;98934.03;;;9.15;100.00
42003;BME280;27693;50.506;30.832;2023-01-19T18:05:09;98929.91;;;9.11;100.00
42003;BME280;27693;50.506;30.832;2023-01-19T18:06:15;98935.33;;;9.06;100.00
42003;BME280;27693;50.506;30.832;2023-01-19T18:07:18;98934.73;;;9.01;100.00
42003;BME280;27693;50.506;30.832;2023-01-19T18:08:22;98936.19;;;9.07;100.00
42003;BME280;27693;50.506;30.832;2023-01-19T18:09:25;98937.12;;;9.22;100.00
42003;BME280;27693;50.506;30.832;2023-01-19T18:10:29;98940.14;;;9.14;100.00
42003;BME280;27693;50.506;30.832;2023-01-19T18:11:32;98937.42;;;9.00;100.00
42003;BME280;27693;50.506;30.832;2023-01-19T18:12:35;98938.42;;;8.97;100.00
42003;BME280;27693;50.506;30.832;2023-01-19T18:13:41;98933.41;;;9.10;100.00
42003;BME280;27693;50.506;30.832;2023-01-19T18:14:43;98937.48;;;9.32;100.00
42003;BME280;27693;50.506;30.832;2023-01-19T18:15:46;98937.56;;;9.30;100.00
42003;BME280;27693;50.506;30.832;2023-01-19T18:16:49;98931.08;;;9.05;100.00
42003;BME280;27693;50.506;30.832;2023-01-19T18:17:51;98940.22;;;9.13;100.00
42003;BME280;27693;50.506;30.832;2023-01-19T18:18:55;98935.30;;;9.24;100.00
42003;BME280;27693;50.506;30.832;2023-01-19T18:19:58;98944.52;;;8.96;100.00
42003;BME280;27693;50.506;30.832;2023-01-19T18:21:07;98943.29;;;9.03;100.00
42003;BME280;27693;50.506;30.832;2023-01-19T18:22:06;98941.28;;;9.08;100.00
42003;BME280;27693;50.506;30.832;2023-01-19T18:23:11;98936.27;;;9.05;100.00
42003;BME280;27693;50.506;30.832;2023-01-19T18:24:13;98949.39;;;9.02;100.00
42003;BME280;27693;50.506;30.832;2023-01-19T18:25:16;98938.25;;;9.00;100.00
42003;BME280;27693;50.506;30.832;2023-01-19T18:26:20;98937.83;;;8.92;100.00
42003;BME280;27693;50.506;30.832;2023-01-19T18:27:23;98936.09;;;9.08;100.00
42003;BME280;27693;50.506;30.832;2023-01-19T18:28:25;98937.92;;;9.06;100.00
42003;BME280;27693;50.506;30.832;2023-01-19T18:29:29;98949.48;;;9.01;100.00
42003;BME280;27693;50.506;30.832;2023-01-19T18:30:36;98938.42;;;8.97;100.00
42003;BME280;27693;50.506;30.832;2023-01-19T18:31:38;98938.25;;;9.00;100.00
42003;BME280;27693;50.506;30.832;2023-01-19T18:32:41;98943.29;;;9.03;100.00
42003;BME280;27693;50.506;30.832;2023-01-19T18:33:45;98936.42;;;9.02;100.00
42003;BME280;27693;50.506;30.832;2023-01-19T18:34:47;98934.41;;;9.07;100.00
42003;BME280;27693;50.506;30.832;2023-01-19T18:35:54;98930.76;;;9.11;100.00
42003;BME280;27693;50.506;30.832;2023-01-19T18:36:57;98926.92;;;9.19;100.00
42003;BME280;27693;50.506;30.832;2023-01-19T18:38:00;98921.11;;;9.14;100.00
42003;BME280;27693;50.506;30.832;2023-01-19T18:39:02;98930.67;;;9.13;100.00
42003;BME280;27693;50.506;30.832;2023-01-19T18:40:07;98930.76;;;9.11;100.00
42003;BME280;27693;50.506;30.832;2023-01-19T18:41:12;98935.50;;;9.03;100.00
42003;BME280;27693;50.506;30.832;2023-01-19T18:42:15;98929.22;;;9.07;100.00
42003;BME280;27693;50.506;30.832;2023-01-19T18:43:17;98920.84;;;9.02;100.00
42003;BME280;27693;50.506;30.832;2023-01-19T18:44:20;98928.42;;;9.23;100.00
42003;BME280;27693;50.506;30.832;2023-01-19T18:45:23;98928.90;;;9.14;100.00
42003;BME280;27693;50.506;30.832;2023-01-19T18:46:26;98928.90;;;9.14;100.00
42003;BME280;27693;50.506;30.832;2023-01-19T18:47:28;98927.25;;;9.13;100.00
42003;BME280;27693;50.506;30.832;2023-01-19T18:48:31;98922.20;;;9.09;100.00
42003;BME280;27693;50.506;30.832;2023-01-19T18:49:50;98929.22;;;9.07;100.00
42003;BME280;27693;50.506;30.832;2023-01-19T18:50:58;98918.22;;;9.20;100.00
42003;BME280;27693;50.506;30.832;2023-01-19T18:52:03;98931.45;;;9.31;100.00
42003;BME280;27693;50.506;30.832;2023-01-19T18:53:06;98926.61;;;9.41;100.00